Terminal Aerodrome Forecast
Issued by NWS

Home | Current Version | Previous Version | Text Only | Print | Product List | Glossary On
Versions: 1 2 3 4 5 6 7 8 9 10 11 12 13 14 15 16 17 18 19
000
FTUS43 KDLH 291900 AAA
TAFBRD
TAF AMD
KBRD 291910Z 2919/3018 35012G20KT P6SM SCT008 OVC014
      TEMPO 2919/2922 OVC008
     FM300000 36012KT P6SM BKN025
     FM300300 01010KT P6SM SCT030
     FM301400 02012KT P6SM SKC=

USA.gov is the U.S. government's official web portal to all federal, state and local government web resources and services.